Furrs, Mississippi
Current Conditions -  °F | °C
As of 4:53 AM on Thursday 23 Oct 2014 (Local Time) from KTUP Reporting Station
Clear Clear  
Wind Chill: 38°   Ceiling: Unl
Heat Index: 42°   Visibility: 10mi
Dew Point: 39°   Wind: 6mph
Humidity: 89%   Direction: 50°NE
Pressure: 30.16"   Gusts: NA
Location:  34.1762°N, 88.9612°W
Report Text: KTUP 230953Z AUTO 05005KT 10SM CLR 06/04 A3016 RMK AO2 SLP209 T00560039 PWINO
Loading
Personal Weather Stations






























Interactive Weather Map New forecast layout! Learn more

10-Day Weather Forecast

Advertisements
Track Severe Weather on mobile